Time;durP1;ratioP1;P1;durP2;ratioP2;P2;SDS_P1;SDS_P2;PMS_P1;PMS_P2;Temp;Humidity;BMP_temperature;BMP_pressure;BME280_temperature;BME280_humidity;BME280_pressure;Samples;Min_cycle;Max_cycle;Signal;HPM_P1;HPM_P2
2021/06/21 00:01:35;;;;;;;1.15;1.00;;;30.90;99.90;;;;;;4997122;28;20727;-87
2021/06/21 00:04:06;;;;;;;1.13;1.02;;;30.70;99.90;;;;;;4998328;28;20233;-87
2021/06/21 00:06:37;;;;;;;4.15;1.30;;;30.60;99.90;;;;;;4997283;28;20281;-87
2021/06/21 00:09:08;;;;;;;1.07;0.93;;;30.80;99.90;;;;;;5005803;28;20209;-87
2021/06/21 00:11:39;;;;;;;0.80;0.80;;;31.00;99.90;;;;;;4996215;28;20686;-87
2021/06/21 00:14:11;;;;;;;2.25;1.20;;;31.00;99.90;;;;;;4997597;28;20214;-87
2021/06/21 00:16:42;;;;;;;2.33;1.10;;;30.80;99.90;;;;;;4997218;28;20316;-87
2021/06/21 00:19:13;;;;;;;2.35;1.30;;;30.80;99.90;;;;;;4996872;28;20611;-87
2021/06/21 00:21:43;;;;;;;5.30;0.93;;;30.80;99.90;;;;;;5017591;28;20213;-88
2021/06/21 00:24:19;;;;;;;2.33;1.17;;;30.60;99.90;;;;;;5017298;28;20732;-87
2021/06/21 00:26:51;;;;;;;1.80;1.20;;;30.40;99.90;;;;;;5016756;28;20264;-87
2021/06/21 00:29:24;;;;;;;2.53;1.08;;;30.40;99.90;;;;;;5017034;28;20259;-87
2021/06/21 00:31:54;;;;;;;2.25;1.33;;;30.40;99.90;;;;;;5016983;28;20312;-87
2021/06/21 00:34:25;;;;;;;1.67;1.17;;;30.50;99.90;;;;;;5016227;28;20293;-87
2021/06/21 00:36:56;;;;;;;2.23;1.00;;;30.50;99.90;;;;;;4998004;28;20297;-88
2021/06/21 00:39:27;;;;;;;1.67;1.20;;;30.30;99.90;;;;;;4997734;28;20650;-87
2021/06/21 00:41:57;;;;;;;3.23;1.10;;;30.30;99.90;;;;;;4995823;28;20297;-88
2021/06/21 00:44:31;;;;;;;2.13;0.93;;;30.30;99.90;;;;;;4997794;28;20293;-89
2021/06/21 00:47:01;;;;;;;1.60;0.93;;;30.40;99.90;;;;;;4997744;28;20305;-88
2021/06/21 00:49:32;;;;;;;3.20;1.10;;;30.80;99.90;;;;;;4997654;28;20276;-88
2021/06/21 00:52:03;;;;;;;2.40;1.30;;;31.10;99.90;;;;;;4997559;28;20310;-88
2021/06/21 00:54:34;;;;;;;1.92;0.98;;;31.60;99.90;;;;;;5017496;28;20281;-88
2021/06/21 00:57:05;;;;;;;4.63;1.42;;;32.10;99.90;;;;;;5017110;28;20745;-89
2021/06/21 00:59:38;;;;;;;1.20;1.10;;;31.90;99.90;;;;;;5016321;28;20623;-88
2021/06/21 01:02:11;;;;;;;3.88;1.20;;;32.30;99.60;;;;;;5006041;28;20298;-88
2021/06/21 01:04:42;;;;;;;4.00;1.10;;;33.00;99.20;;;;;;4999024;28;20210;-88
2021/06/21 01:07:12;;;;;;;2.15;1.40;;;33.30;99.30;;;;;;4997747;28;20261;-88
2021/06/21 01:09:43;;;;;;;4.35;1.98;;;33.60;98.30;;;;;;4996786;28;20297;-88
2021/06/21 01:12:29;;;;;;;2.30;1.30;;;34.00;97.50;;;;;;4979093;28;20734;-88
2021/06/21 01:15:07;;;;;;;3.50;1.83;;;33.70;97.60;;;;;;4997357;28;20687;-89
2021/06/21 01:17:45;;;;;;;2.05;1.23;;;33.90;97.70;;;;;;4999357;28;20241;-89
2021/06/21 01:20:51;;;;;;;3.28;1.20;;;34.30;97.10;;;;;;4999646;28;20750;-89
2021/06/21 01:23:58;;;;;;;2.47;1.00;;;33.90;97.60;;;;;;5000036;28;20245;-89
2021/06/21 01:26:34;;;;;;;2.10;1.10;;;33.70;97.20;;;;;;5003200;28;20238;-88
2021/06/21 01:29:31;;;;;;;1.42;1.10;;;33.70;96.70;;;;;;5010641;28;20213;-88
2021/06/21 01:32:12;;;;;;;1.75;1.00;;;33.50;96.60;;;;;;5016690;28;20222;-92
2021/06/21 01:34:48;;;;;;;2.47;1.13;;;33.50;96.90;;;;;;5106377;23;20231;-96
2021/06/21 01:37:20;;;;;;;0.85;0.80;;;33.90;96.20;;;;;;5005081;28;20190;-96
2021/06/21 01:39:55;;;;;;;2.88;1.00;;;34.00;94.40;;;;;;5000862;28;20210;-96
2021/06/21 01:42:26;;;;;;;1.52;0.80;;;33.80;94.60;;;;;;5001942;28;20198;-96
2021/06/21 01:45:02;;;;;;;1.77;0.80;;;33.80;94.90;;;;;;4982223;28;20286;-95
2021/06/21 01:47:35;;;;;;;1.75;1.10;;;33.70;94.70;;;;;;4966859;28;20640;-88
2021/06/21 01:50:09;;;;;;;1.67;1.05;;;33.70;94.20;;;;;;4994902;28;20665;-88
2021/06/21 01:52:44;;;;;;;3.75;1.13;;;33.60;94.10;;;;;;4995792;28;20324;-88
2021/06/21 01:55:21;;;;;;;2.90;1.30;;;33.20;94.70;;;;;;4986239;28;20246;-86
2021/06/21 01:57:54;;;;;;;1.92;1.40;;;33.70;94.40;;;;;;4977930;28;20202;-87
2021/06/21 02:00:26;;;;;;;7.97;7.15;;;34.00;94.10;;;;;;4975323;28;20207;-88
2021/06/21 02:02:59;;;;;;;3.75;1.40;;;33.80;94.40;;;;;;4975565;28;20302;-89
2021/06/21 02:05:34;;;;;;;1.17;0.95;;;33.70;94.20;;;;;;4976025;28;20245;-89
2021/06/21 02:08:07;;;;;;;5.45;1.02;;;33.10;94.90;;;;;;4641393;28;10000104;-88
2021/06/21 02:10:39;;;;;;;2.60;1.25;;;33.30;95.30;;;;;;4975699;28;20590;-88
2021/06/21 02:13:10;;;;;;;2.30;1.40;;;33.30;94.90;;;;;;4975714;28;20281;-88
2021/06/21 02:15:41;;;;;;;2.38;1.20;;;33.60;95.30;;;;;;4979174;28;20202;-89
2021/06/21 02:18:14;;;;;;;2.17;1.10;;;33.50;95.30;;;;;;4994563;28;20215;-90
2021/06/21 02:20:47;;;;;;;3.35;1.10;;;33.50;94.80;;;;;;4998251;28;20206;-89
2021/06/21 02:23:19;;;;;;;1.30;1.10;;;33.20;95.20;;;;;;4992226;28;20191;-89
2021/06/21 02:25:52;;;;;;;3.72;1.20;;;33.00;95.70;;;;;;4984696;28;20285;-88
2021/06/21 02:28:24;;;;;;;3.92;1.20;;;32.70;95.80;;;;;;4975640;28;20242;-87
2021/06/21 02:30:58;;;;;;;3.75;1.08;;;33.00;95.60;;;;;;4978546;28;20329;-88
2021/06/21 02:33:29;;;;;;;1.83;1.20;;;33.00;95.40;;;;;;4968675;28;20666;-88
2021/06/21 02:36:02;;;;;;;2.28;1.02;;;32.60;95.80;;;;;;4967465;28;20246;-86
2021/06/21 02:38:34;;;;;;;1.90;1.30;;;32.00;96.50;;;;;;4969244;28;20298;-86
2021/06/21 02:41:05;;;;;;;3.88;1.10;;;31.10;97.50;;;;;;4973003;28;20242;-87
2021/06/21 02:43:36;;;;;;;1.98;1.48;;;30.10;98.40;;;;;;4973634;28;20249;-86
2021/06/21 02:46:06;;;;;;;1.97;1.40;;;29.20;98.70;;;;;;4971749;28;20654;-88
2021/06/21 02:48:37;;;;;;;2.00;1.10;;;28.80;99.50;;;;;;4974806;28;20229;-87
2021/06/21 02:51:13;;;;;;;2.30;1.37;;;28.20;99.90;;;;;;4960096;28;20303;-85
2021/06/21 02:53:52;;;;;;;2.37;1.13;;;28.00;99.90;;;;;;4973919;28;20399;-90
2021/06/21 02:56:37;;;;;;;1.43;1.07;;;27.60;99.90;;;;;;4970527;28;20234;-96
2021/06/21 02:59:13;;;;;;;4.73;1.43;;;27.20;99.90;;;;;;4977998;28;20298;-92
2021/06/21 03:01:48;;;;;;;4.00;1.20;;;26.90;99.90;;;;;;4994696;28;20241;-91
2021/06/21 03:04:22;;;;;;;3.47;1.23;;;26.70;99.90;;;;;;4977973;28;20287;-92
2021/06/21 03:06:57;;;;;;;2.20;1.20;;;26.60;99.90;;;;;;4992072;28;20252;-92
2021/06/21 03:09:29;;;;;;;1.80;1.27;;;26.40;99.90;;;;;;4996152;28;20305;-90
2021/06/21 03:12:03;;;;;;;2.03;1.40;;;26.20;99.90;;;;;;4966224;28;20237;-92
2021/06/21 03:14:36;;;;;;;1.90;1.43;;;26.10;99.90;;;;;;4976813;28;20249;-93
2021/06/21 03:17:08;;;;;;;2.37;1.00;;;25.90;99.90;;;;;;4976964;28;20211;-92
2021/06/21 03:19:40;;;;;;;2.63;1.03;;;25.70;99.90;;;;;;4976745;28;20211;-90
2021/06/21 03:22:14;;;;;;;1.17;0.90;;;25.70;99.90;;;;;;4975233;28;20245;-90
2021/06/21 03:24:45;;;;;;;3.00;1.00;;;25.50;99.90;;;;;;4994463;28;20651;-90
2021/06/21 03:27:16;;;;;;;2.17;1.00;;;25.40;99.90;;;;;;4978694;28;20230;-90
2021/06/21 03:29:47;;;;;;;2.30;1.40;;;25.40;99.90;;;;;;4975271;28;20261;-95
2021/06/21 03:32:29;;;;;;;3.10;1.03;;;25.20;99.90;;;;;;4975830;28;20293;-93
2021/06/21 03:35:01;;;;;;;1.50;1.10;;;25.10;99.90;;;;;;4976757;28;20322;-92
2021/06/21 03:37:37;;;;;;;1.27;1.10;;;25.00;99.90;;;;;;4979679;28;20683;-91
2021/06/21 03:40:11;;;;;;;2.77;1.50;;;24.80;99.90;;;;;;4978029;28;20217;-91
2021/06/21 03:42:45;;;;;;;2.70;1.23;;;24.70;99.90;;;;;;4959673;29;20209;-92
2021/06/21 03:45:17;;;;;;;3.93;1.40;;;24.70;99.90;;;;;;4987226;28;20214;-92
2021/06/21 03:47:49;;;;;;;4.90;1.30;;;24.50;99.90;;;;;;4984469;28;20207;-92
2021/06/21 03:50:20;;;;;;;3.87;1.17;;;24.30;99.90;;;;;;4991338;28;20218;-91
2021/06/21 03:52:53;;;;;;;2.33;1.10;;;24.30;99.90;;;;;;4996673;28;20207;-92
2021/06/21 03:55:24;;;;;;;1.97;1.30;;;24.10;99.90;;;;;;4993022;28;20249;-91
2021/06/21 03:57:56;;;;;;;3.90;1.50;;;24.10;99.90;;;;;;4977322;28;20219;-91
2021/06/21 04:00:28;;;;;;;5.13;1.40;;;24.00;99.90;;;;;;4993923;28;20269;-91
2021/06/21 04:03:00;;;;;;;2.20;1.20;;;23.80;99.90;;;;;;4994951;28;20206;-91
2021/06/21 04:05:37;;;;;;;1.47;1.00;;;23.70;99.90;;;;;;4995864;28;20217;-91
2021/06/21 04:08:12;;;;;;;1.53;1.20;;;23.60;99.90;;;;;;4978173;28;20317;-90
2021/06/21 04:10:44;;;;;;;3.00;1.47;;;23.60;99.90;;;;;;4975426;28;20222;-91
2021/06/21 04:13:16;;;;;;;3.27;1.43;;;23.40;99.90;;;;;;4979755;28;20266;-91
2021/06/21 04:15:48;;;;;;;4.57;1.50;;;23.40;99.90;;;;;;4994770;28;20218;-91
2021/06/21 04:18:24;;;;;;;4.70;1.40;;;23.30;99.90;;;;;;5000291;28;20240;-90
2021/06/21 04:20:57;;;;;;;3.57;1.30;;;23.20;99.90;;;;;;4985612;28;20213;-91
2021/06/21 04:23:30;;;;;;;2.10;1.40;;;23.20;99.90;;;;;;4995983;28;20213;-92
2021/06/21 04:26:01;;;;;;;2.13;1.57;;;23.10;99.90;;;;;;4989159;28;20210;-90
2021/06/21 04:28:36;;;;;;;3.83;1.60;;;23.00;99.90;;;;;;5001604;28;20229;-91
2021/06/21 04:31:07;;;;;;;1.97;1.33;;;23.00;99.90;;;;;;4995798;28;20221;-92
2021/06/21 04:33:40;;;;;;;3.83;1.40;;;22.90;99.90;;;;;;4977657;28;20230;-91
2021/06/21 04:36:11;;;;;;;2.83;1.50;;;22.90;99.90;;;;;;4995656;28;20211;-91
2021/06/21 04:38:44;;;;;;;1.67;1.23;;;22.80;99.90;;;;;;4980575;28;20207;-91
2021/06/21 04:41:15;;;;;;;1.80;1.10;;;22.70;99.90;;;;;;4982811;28;20246;-92
2021/06/21 04:43:46;;;;;;;2.23;1.30;;;22.70;99.90;;;;;;4992619;28;20218;-91
2021/06/21 04:46:17;;;;;;;3.23;1.20;;;22.60;99.90;;;;;;4998484;28;20202;-92
2021/06/21 04:48:48;;;;;;;3.77;1.37;;;22.60;99.90;;;;;;5007466;28;20198;-92
2021/06/21 04:51:22;;;;;;;6.60;1.50;;;22.60;99.90;;;;;;5008146;28;21491;-92
2021/06/21 04:53:55;;;;;;;2.60;1.43;;;22.50;99.90;;;;;;5006257;28;20199;-92
2021/06/21 04:56:26;;;;;;;2.63;1.30;;;22.50;99.90;;;;;;4981951;28;20576;-91
2021/06/21 04:58:57;;;;;;;2.90;1.10;;;22.50;99.90;;;;;;4979291;28;20274;-91
2021/06/21 05:01:28;;;;;;;2.37;1.40;;;22.40;99.90;;;;;;4977083;28;20298;-91
2021/06/21 05:04:00;;;;;;;3.77;1.53;;;22.30;99.90;;;;;;4958521;28;20263;-91
2021/06/21 05:06:32;;;;;;;4.57;2.10;;;22.20;99.90;;;;;;4974126;28;20242;-91
2021/06/21 05:09:07;;;;;;;2.87;1.83;;;22.20;99.90;;;;;;4994216;28;20249;-91
2021/06/21 05:11:38;;;;;;;5.73;3.10;;;22.00;99.90;;;;;;4977249;28;20676;-91
2021/06/21 05:14:09;;;;;;;2.90;1.57;;;22.00;99.90;;;;;;4993784;28;20238;-92
2021/06/21 05:16:41;;;;;;;4.80;1.60;;;21.80;99.90;;;;;;4981380;28;20294;-92
2021/06/21 05:19:12;;;;;;;4.17;2.23;;;21.60;99.90;;;;;;4978383;28;20219;-92
2021/06/21 05:21:43;;;;;;;6.80;2.33;;;21.40;99.90;;;;;;4977046;28;20446;-91
2021/06/21 05:24:16;;;;;;;3.27;1.67;;;21.30;99.90;;;;;;4977640;28;20234;-90
2021/06/21 05:26:47;;;;;;;5.37;1.40;;;21.20;99.90;;;;;;4978186;28;20491;-91
2021/06/21 05:29:18;;;;;;;9.07;1.43;;;21.20;99.90;;;;;;4978437;28;20234;-91
2021/06/21 05:31:48;;;;;;;3.47;1.40;;;21.20;99.90;;;;;;4976695;28;20293;-91
2021/06/21 05:34:19;;;;;;;2.80;1.27;;;21.20;99.90;;;;;;4977875;28;20231;-91
2021/06/21 05:36:50;;;;;;;1.27;1.17;;;21.10;99.90;;;;;;4977654;28;20227;-91
2021/06/21 05:39:23;;;;;;;2.13;1.30;;;21.20;99.90;;;;;;4977053;28;20282;-91
2021/06/21 05:41:54;;;;;;;3.10;1.00;;;21.20;99.90;;;;;;4976066;28;20285;-91
2021/06/21 05:44:25;;;;;;;1.63;1.10;;;21.10;99.90;;;;;;4979421;28;20268;-90
2021/06/21 05:46:57;;;;;;;7.23;1.30;;;21.20;99.90;;;;;;4988215;28;20257;-91
2021/06/21 05:49:29;;;;;;;3.20;1.43;;;21.20;99.90;;;;;;4984537;28;20677;-91
2021/06/21 05:52:01;;;;;;;1.43;1.00;;;21.20;99.90;;;;;;4995399;28;20234;-93
2021/06/21 05:54:34;;;;;;;1.67;1.13;;;21.10;99.90;;;;;;4983070;28;20695;-91
2021/06/21 05:57:05;;;;;;;1.60;0.90;;;21.10;99.90;;;;;;4977042;28;20219;-91
2021/06/21 05:59:37;;;;;;;3.33;1.10;;;21.10;99.90;;;;;;4977735;28;20218;-91
2021/06/21 06:02:07;;;;;;;2.77;1.23;;;21.10;99.90;;;;;;4979477;28;20562;-91
2021/06/21 06:04:38;;;;;;;1.20;1.10;;;21.10;99.90;;;;;;4996710;28;20305;-91
2021/06/21 06:07:13;;;;;;;2.77;1.10;;;21.00;99.90;;;;;;4996554;28;20246;-92
2021/06/21 06:09:49;;;;;;;1.40;0.93;;;20.90;99.90;;;;;;4979595;28;20215;-91
2021/06/21 06:12:20;;;;;;;2.07;1.33;;;20.90;99.90;;;;;;4977098;28;20245;-91
2021/06/21 06:14:51;;;;;;;3.73;1.40;;;20.70;99.90;;;;;;4977939;28;20223;-91
2021/06/21 06:17:23;;;;;;;1.57;1.03;;;20.70;99.90;;;;;;4977306;28;20207;-91
2021/06/21 06:19:54;;;;;;;2.43;1.10;;;20.60;99.90;;;;;;4978351;28;20215;-92
2021/06/21 06:22:25;;;;;;;1.20;0.90;;;20.60;99.90;;;;;;4993258;28;20667;-91
2021/06/21 06:24:58;;;;;;;3.43;1.20;;;20.50;99.90;;;;;;4988637;28;20554;-91
2021/06/21 06:27:29;;;;;;;3.63;1.30;;;20.50;99.90;;;;;;4976844;28;20263;-90
2021/06/21 06:30:00;;;;;;;4.23;1.20;;;20.40;99.90;;;;;;4977185;28;20215;-91
2021/06/21 06:32:31;;;;;;;1.83;1.10;;;20.40;99.90;;;;;;4978544;28;20203;-91
2021/06/21 06:35:02;;;;;;;1.67;1.13;;;20.40;99.90;;;;;;4983518;28;20236;-90
2021/06/21 06:37:32;;;;;;;3.93;1.27;;;20.40;99.90;;;;;;4989925;28;20227;-91
2021/06/21 06:40:05;;;;;;;2.00;1.10;;;20.40;99.90;;;;;;4995061;28;20653;-91
2021/06/21 06:42:36;;;;;;;3.30;1.30;;;20.40;99.90;;;;;;4985331;28;20576;-89
2021/06/21 06:45:09;;;;;;;1.40;1.00;;;20.40;99.90;;;;;;4996159;28;20216;-89
2021/06/21 06:47:41;;;;;;;1.97;1.00;;;20.40;99.90;;;;;;4996230;28;20257;-90
2021/06/21 06:50:13;;;;;;;2.80;1.40;;;20.30;99.90;;;;;;5007384;28;20552;-90
2021/06/21 06:52:45;;;;;;;3.23;1.37;;;20.20;99.90;;;;;;5001939;28;20217;-92
2021/06/21 06:58:08;;;;;;;2.87;1.20;;;20.10;99.90;;;;;;4999813;28;20225;-90
2021/06/21 07:00:38;;;;;;;2.10;1.37;;;20.00;99.90;;;;;;4997769;28;20663;-91
2021/06/21 07:03:10;;;;;;;1.90;0.80;;;20.00;99.90;;;;;;4993262;28;20258;-89
2021/06/21 07:05:44;;;;;;;2.57;1.10;;;19.90;99.90;;;;;;4977600;28;20263;-89
2021/06/21 07:08:14;;;;;;;1.80;1.20;;;19.80;99.90;;;;;;4974979;28;20226;-89
2021/06/21 07:10:47;;;;;;;1.97;1.10;;;19.80;99.90;;;;;;4975647;28;20286;-89
2021/06/21 07:13:18;;;;;;;3.20;1.37;;;19.70;99.90;;;;;;4982938;28;20225;-90
2021/06/21 07:15:50;;;;;;;3.17;1.13;;;19.70;99.90;;;;;;4996804;28;20229;-89
2021/06/21 07:18:21;;;;;;;1.50;1.00;;;19.60;99.90;;;;;;4996213;28;20207;-89
2021/06/21 07:20:52;;;;;;;1.73;0.90;;;19.70;99.90;;;;;;4991400;28;20580;-89
2021/06/21 07:23:23;;;;;;;1.97;0.80;;;19.70;99.90;;;;;;5002741;28;20207;-90
2021/06/21 07:25:56;;;;;;;1.37;0.90;;;19.60;99.90;;;;;;4994745;28;20667;-89
2021/06/21 07:28:27;;;;;;;2.33;0.97;;;19.60;99.90;;;;;;4984638;28;20215;-89
2021/06/21 07:30:58;;;;;;;4.10;0.90;;;19.60;99.90;;;;;;4984132;28;20295;-89
2021/06/21 07:33:30;;;;;;;1.37;1.10;;;19.60;99.90;;;;;;4983736;28;20651;-89
2021/06/21 07:36:02;;;;;;;1.07;0.97;;;19.60;99.90;;;;;;4980111;28;20771;-89
2021/06/21 07:38:33;;;;;;;3.00;1.20;;;19.50;99.90;;;;;;4976171;28;20215;-90
2021/06/21 07:41:06;;;;;;;1.33;1.00;;;19.50;99.90;;;;;;4976024;28;20231;-90
2021/06/21 07:43:37;;;;;;;2.40;1.07;;;19.50;99.90;;;;;;4976013;28;20207;-89
2021/06/21 07:46:08;;;;;;;2.17;0.93;;;19.40;99.90;;;;;;4975395;28;20211;-89
2021/06/21 07:48:41;;;;;;;1.67;1.00;;;19.40;99.90;;;;;;4983577;28;20214;-89
2021/06/21 07:51:13;;;;;;;1.90;1.10;;;19.40;99.90;;;;;;4993685;28;20276;-89
2021/06/21 07:53:47;;;;;;;1.50;1.13;;;19.30;99.90;;;;;;4994131;28;20265;-89
2021/06/21 07:56:20;;;;;;;2.77;1.30;;;19.30;99.90;;;;;;4994314;28;20290;-89
2021/06/21 07:58:52;;;;;;;3.07;1.17;;;19.30;99.90;;;;;;4980805;28;20227;-89
2021/06/21 08:01:22;;;;;;;1.67;1.20;;;19.20;99.90;;;;;;4974161;28;20214;-89
2021/06/21 08:03:56;;;;;;;2.70;1.20;;;19.20;99.90;;;;;;4974722;28;20210;-89
2021/06/21 08:06:27;;;;;;;1.20;1.10;;;19.10;99.90;;;;;;4981727;28;20236;-89
2021/06/21 08:08:57;;;;;;;1.13;0.93;;;19.10;99.90;;;;;;4988665;28;20235;-90
2021/06/21 08:11:31;;;;;;;1.53;1.30;;;19.10;99.90;;;;;;4978165;28;20207;-90
2021/06/21 08:14:02;;;;;;;1.40;1.30;;;19.10;99.90;;;;;;4978130;28;20219;-90
2021/06/21 08:16:33;;;;;;;1.20;1.10;;;19.00;99.90;;;;;;4978632;28;20333;-90
2021/06/21 08:19:05;;;;;;;3.63;1.50;;;19.00;99.90;;;;;;4978390;28;20229;-90
2021/06/21 08:21:36;;;;;;;1.70;1.20;;;18.90;99.90;;;;;;4976930;28;20629;-89
2021/06/21 08:24:11;;;;;;;5.47;1.70;;;18.90;99.90;;;;;;4986296;28;20314;-89
2021/06/21 08:26:44;;;;;;;2.30;1.40;;;18.90;99.90;;;;;;4998716;28;20218;-89
2021/06/21 08:29:16;;;;;;;2.50;1.10;;;18.80;99.90;;;;;;4999950;28;20253;-89
2021/06/21 08:31:48;;;;;;;1.83;1.30;;;18.80;99.90;;;;;;4996908;28;20289;-89
2021/06/21 08:34:19;;;;;;;3.77;1.30;;;18.70;99.90;;;;;;4997281;28;20575;-89
2021/06/21 08:36:49;;;;;;;3.10;1.27;;;18.70;99.90;;;;;;4997382;28;20639;-89
2021/06/21 08:39:20;;;;;;;1.00;0.97;;;18.70;99.90;;;;;;4997767;28;20249;-89
2021/06/21 08:41:55;;;;;;;3.23;1.10;;;18.60;99.90;;;;;;4989467;28;20285;-90
2021/06/21 08:44:27;;;;;;;1.10;1.00;;;18.60;99.90;;;;;;4977811;28;20206;-89
2021/06/21 08:46:59;;;;;;;2.10;1.17;;;18.60;99.90;;;;;;4979667;28;20310;-89
2021/06/21 08:49:31;;;;;;;1.00;0.90;;;18.60;99.90;;;;;;4978288;28;20222;-89
2021/06/21 08:52:03;;;;;;;1.40;0.90;;;18.60;99.90;;;;;;4976223;28;20558;-89
2021/06/21 08:54:34;;;;;;;0.93;0.90;;;18.60;99.90;;;;;;4978490;28;20290;-89
2021/06/21 08:57:08;;;;;;;3.07;0.90;;;18.50;99.90;;;;;;4977559;28;20638;-89
2021/06/21 08:59:41;;;;;;;1.40;1.00;;;18.50;99.90;;;;;;4985978;28;20260;-89
2021/06/21 09:02:15;;;;;;;1.20;1.00;;;18.40;99.90;;;;;;4996820;28;20301;-89
2021/06/21 09:04:46;;;;;;;2.90;1.00;;;18.30;99.90;;;;;;4997112;28;20214;-89
2021/06/21 09:07:19;;;;;;;1.73;1.10;;;18.20;99.90;;;;;;4978074;28;20219;-89
2021/06/21 09:09:51;;;;;;;2.10;0.90;;;18.20;99.90;;;;;;4977640;28;20234;-90
2021/06/21 09:12:26;;;;;;;1.53;1.00;;;18.20;99.90;;;;;;4977545;28;20267;-89
2021/06/21 09:14:59;;;;;;;4.23;1.10;;;18.20;99.90;;;;;;4977432;28;20207;-89
2021/06/21 09:17:32;;;;;;;3.20;1.00;;;18.20;99.90;;;;;;4987008;28;20265;-89
2021/06/21 09:20:06;;;;;;;3.37;0.90;;;18.10;99.90;;;;;;4994818;28;20237;-90
2021/06/21 09:22:39;;;;;;;2.13;1.23;;;18.10;99.90;;;;;;4996205;28;20213;-89
2021/06/21 09:25:12;;;;;;;1.17;0.90;;;18.00;99.90;;;;;;4977886;28;20299;-90
2021/06/21 09:27:56;;;;;;;1.30;0.87;;;18.00;99.90;;;;;;4958508;28;20211;-89
2021/06/21 09:30:27;;;;;;;1.93;1.10;;;18.00;99.90;;;;;;4957483;28;20207;-89
2021/06/21 09:32:59;;;;;;;2.80;1.00;;;18.00;99.90;;;;;;4958253;28;20212;-89
2021/06/21 09:35:42;;;;;;;1.77;1.10;;;17.90;99.90;;;;;;4969085;28;20250;-89
2021/06/21 09:38:18;;;;;;;2.10;1.00;;;17.80;99.90;;;;;;4977575;28;20274;-89
2021/06/21 09:40:53;;;;;;;2.20;1.07;;;17.80;99.90;;;;;;4976201;28;20522;-89
2021/06/21 09:43:39;;;;;;;2.73;1.00;;;17.70;99.90;;;;;;4981500;28;20214;-89
2021/06/21 09:46:14;;;;;;;2.43;1.00;;;17.60;99.90;;;;;;4964672;29;20315;-89
2021/06/21 09:48:47;;;;;;;1.03;0.90;;;17.60;99.90;;;;;;4978638;28;20191;-89
2021/06/21 09:51:32;;;;;;;1.20;1.10;;;17.50;99.90;;;;;;4983142;28;20203;-90
2021/06/21 09:54:08;;;;;;;1.67;1.27;;;17.40;99.90;;;;;;4987580;28;20207;-89
2021/06/21 09:56:46;;;;;;;2.03;1.13;;;17.40;99.90;;;;;;4980139;28;20585;-90
2021/06/21 09:59:26;;;;;;;1.97;1.00;;;17.40;99.90;;;;;;4977804;28;20241;-89
2021/06/21 10:02:10;;;;;;;1.53;1.43;;;17.30;99.90;;;;;;4989379;28;20230;-91
2021/06/21 10:04:43;;;;;;;3.13;1.20;;;17.30;99.90;;;;;;4996588;28;20237;-89
2021/06/21 10:07:31;;;;;;;2.10;1.20;;;17.30;99.90;;;;;;5002139;28;20245;-89
2021/06/21 10:10:06;;;;;;;1.77;1.30;;;17.20;99.90;;;;;;4984386;28;20549;-89
2021/06/21 10:12:37;;;;;;;2.10;1.10;;;17.20;99.90;;;;;;4983817;28;20274;-89
2021/06/21 10:15:13;;;;;;;1.20;1.10;;;17.20;99.90;;;;;;4982207;28;20310;-89
2021/06/21 10:17:45;;;;;;;2.07;1.20;;;17.10;99.90;;;;;;4977297;28;20312;-89
2021/06/21 10:20:16;;;;;;;2.00;1.30;;;17.10;99.90;;;;;;4976316;28;20219;-89
2021/06/21 10:22:48;;;;;;;2.93;1.10;;;17.00;99.90;;;;;;4976864;28;20237;-88
2021/06/21 10:25:21;;;;;;;2.50;1.00;;;17.00;99.90;;;;;;4977006;28;20238;-89
2021/06/21 10:27:52;;;;;;;1.80;1.27;;;17.00;99.90;;;;;;4977031;28;20274;-89
2021/06/21 10:30:25;;;;;;;1.53;1.33;;;16.90;99.90;;;;;;4974338;28;20290;-89
2021/06/21 10:32:56;;;;;;;1.50;1.20;;;16.90;99.90;;;;;;4976295;28;20218;-88
2021/06/21 10:35:32;;;;;;;2.17;1.30;;;16.90;99.90;;;;;;4975679;28;20693;-87
2021/06/21 10:38:06;;;;;;;3.97;1.70;;;16.80;99.90;;;;;;4976107;28;20254;-89
2021/06/21 10:41:01;;;;;;;2.43;1.20;;;16.80;99.90;;;;;;4975054;28;20242;-89
2021/06/21 10:43:49;;;;;;;1.20;1.10;;;16.70;99.90;;;;;;4974061;28;20255;-89
2021/06/21 10:46:28;;;;;;;2.03;1.30;;;16.70;99.90;;;;;;4976039;28;20258;-89
2021/06/21 10:49:35;;;;;;;1.77;1.40;;;16.70;99.90;;;;;;4975697;28;20218;-89
2021/06/21 10:52:41;;;;;;;1.93;1.27;;;16.70;99.90;;;;;;4955400;28;20241;-89
2021/06/21 10:55:40;;;;;;;2.17;1.30;;;16.60;99.90;;;;;;4960640;28;20230;-89
2021/06/21 10:58:41;;;;;;;1.40;1.20;;;16.50;99.90;;;;;;4975341;28;21087;-89
2021/06/21 11:01:21;;;;;;;2.50;1.40;;;16.50;99.90;;;;;;4975177;28;20359;-89
2021/06/21 11:03:54;;;;;;;1.53;1.20;;;16.50;99.90;;;;;;4976979;28;20230;-89
2021/06/21 11:06:42;;;;;;;2.17;1.30;;;16.50;99.90;;;;;;4976732;28;20242;-89
2021/06/21 11:09:13;;;;;;;1.27;1.17;;;16.40;99.90;;;;;;4976060;28;20234;-90
2021/06/21 11:11:48;;;;;;;2.03;1.20;;;16.40;99.90;;;;;;4978858;28;20313;-89
2021/06/21 11:14:24;;;;;;;2.00;1.40;;;16.40;99.90;;;;;;4995456;28;20735;-89
2021/06/21 11:17:18;;;;;;;1.17;1.07;;;16.30;99.90;;;;;;4995578;28;20713;-89
2021/06/21 11:19:50;;;;;;;3.83;1.40;;;16.20;99.90;;;;;;4994664;28;20237;-92
2021/06/21 11:22:42;;;;;;;2.43;1.23;;;16.20;99.90;;;;;;4977291;28;20227;-89
2021/06/21 11:25:24;;;;;;;1.53;1.17;;;16.20;99.90;;;;;;4975251;28;20215;-89
2021/06/21 11:27:56;;;;;;;1.53;1.20;;;16.20;99.90;;;;;;4975627;28;20613;-89
2021/06/21 11:30:29;;;;;;;1.50;1.30;;;16.20;99.90;;;;;;4975506;28;20305;-89
2021/06/21 11:33:03;;;;;;;2.23;1.20;;;16.20;99.90;;;;;;4975292;28;20207;-88
2021/06/21 11:35:56;;;;;;;2.20;1.20;;;16.20;99.90;;;;;;4974926;28;20249;-89
2021/06/21 11:38:38;;;;;;;2.53;1.20;;;16.10;99.90;;;;;;4976120;28;20771;-89
2021/06/21 11:41:30;;;;;;;1.43;1.20;;;16.10;99.90;;;;;;4974422;28;20660;-89
2021/06/21 11:44:03;;;;;;;2.70;1.40;;;16.10;99.90;;;;;;4975053;28;20719;-88
2021/06/21 11:46:47;;;;;;;2.00;1.40;;;16.10;99.90;;;;;;4982434;28;20482;-89
2021/06/21 11:49:21;;;;;;;3.27;1.50;;;16.10;99.90;;;;;;4981333;28;20207;-89
2021/06/21 11:52:11;;;;;;;1.63;1.10;;;16.00;99.90;;;;;;4973982;28;20223;-89
2021/06/21 11:54:44;;;;;;;2.23;1.30;;;16.00;99.90;;;;;;4974896;28;20211;-89
2021/06/21 11:57:16;;;;;;;1.33;1.20;;;16.00;99.90;;;;;;4975362;28;20210;-89
2021/06/21 11:59:49;;;;;;;1.30;1.13;;;16.00;99.90;;;;;;4974430;28;20297;-91
2021/06/21 12:02:22;;;;;;;1.30;1.20;;;15.90;99.90;;;;;;4975192;28;20218;-89
2021/06/21 12:04:56;;;;;;;3.30;1.20;;;15.90;99.90;;;;;;4975707;28;20221;-88
2021/06/21 12:07:34;;;;;;;2.90;1.10;;;15.90;99.90;;;;;;4976904;28;20290;-89
2021/06/21 12:10:07;;;;;;;1.50;1.30;;;15.90;99.90;;;;;;4978217;28;20211;-89
2021/06/21 12:12:40;;;;;;;1.90;1.10;;;15.90;99.90;;;;;;4979410;28;20274;-90
2021/06/21 12:15:14;;;;;;;1.53;1.13;;;15.90;99.90;;;;;;4992862;28;20262;-89
2021/06/21 12:17:48;;;;;;;1.97;1.10;;;15.90;99.90;;;;;;4994542;28;20198;-89
2021/06/21 12:20:20;;;;;;;2.17;1.20;;;15.90;99.90;;;;;;4988823;28;20191;-90
2021/06/21 12:22:58;;;;;;;1.87;1.37;;;15.90;99.90;;;;;;4987597;28;20203;-89
2021/06/21 12:25:31;;;;;;;1.63;1.10;;;15.90;99.90;;;;;;4995141;28;20210;-89
2021/06/21 12:28:15;;;;;;;2.27;1.23;;;15.90;99.90;;;;;;5005159;28;20207;-89
2021/06/21 12:30:49;;;;;;;3.20;1.27;;;15.80;99.90;;;;;;4999431;28;20293;-89
2021/06/21 12:33:32;;;;;;;1.30;1.20;;;15.80;99.90;;;;;;4994659;28;20602;-89
2021/06/21 12:36:12;;;;;;;1.57;1.40;;;15.90;99.90;;;;;;4996144;28;20206;-89
2021/06/21 12:38:47;;;;;;;2.53;1.20;;;15.80;99.90;;;;;;4995553;28;20243;-90
2021/06/21 12:41:20;;;;;;;2.13;1.30;;;15.80;99.90;;;;;;4983080;28;20646;-89
2021/06/21 12:43:59;;;;;;;2.50;1.40;;;15.80;99.90;;;;;;4975380;28;20214;-89
2021/06/21 12:46:32;;;;;;;2.47;1.50;;;15.80;99.90;;;;;;4992388;28;20349;-89
2021/06/21 12:49:07;;;;;;;1.60;1.20;;;15.90;99.90;;;;;;4991443;28;20237;-89
2021/06/21 12:51:39;;;;;;;1.77;1.00;;;15.90;99.90;;;;;;4974896;28;20586;-89
2021/06/21 12:54:19;;;;;;;1.83;1.20;;;15.90;99.90;;;;;;4977888;28;20250;-90
2021/06/21 12:56:54;;;;;;;1.70;1.30;;;15.90;99.90;;;;;;4978454;28;20325;-90
2021/06/21 12:59:30;;;;;;;3.87;1.43;;;15.90;99.90;;;;;;4977990;28;20279;-90
2021/06/21 13:02:03;;;;;;;2.60;1.27;;;15.90;99.90;;;;;;4976511;28;20230;-89
2021/06/21 13:04:34;;;;;;;3.23;1.23;;;15.90;99.90;;;;;;4977219;28;20210;-90
2021/06/21 13:07:09;;;;;;;1.63;1.07;;;16.00;99.90;;;;;;4978262;28;20207;-90
2021/06/21 13:09:52;;;;;;;2.77;1.20;;;16.00;99.90;;;;;;4977751;28;20249;-90
2021/06/21 13:12:28;;;;;;;2.93;1.17;;;16.00;99.90;;;;;;4978292;28;20207;-90
2021/06/21 13:15:11;;;;;;;1.30;1.10;;;16.00;99.90;;;;;;4957851;29;20279;-90
2021/06/21 13:17:44;;;;;;;2.83;1.60;;;16.00;99.90;;;;;;4959000;28;20207;-90
2021/06/21 13:20:17;;;;;;;2.30;1.20;;;16.00;99.90;;;;;;4963661;28;20246;-90
2021/06/21 13:22:51;;;;;;;2.00;1.10;;;16.10;99.90;;;;;;4977423;28;20656;-91
2021/06/21 13:25:27;;;;;;;2.07;1.40;;;16.10;99.90;;;;;;4977832;28;20211;-91